createdAt,value
2023-02-11T00:00:50.647Z,79.63
2023-02-11T00:03:22.842Z,79.79
2023-02-11T00:05:59.632Z,79.79
2023-02-11T00:08:28.409Z,80.00
2023-02-11T00:10:58.575Z,79.87
2023-02-11T00:13:27.460Z,79.72
2023-02-11T00:15:57.490Z,79.51
2023-02-11T00:18:27.900Z,79.55
2023-02-11T00:20:59.557Z,79.40
2023-02-11T00:23:27.592Z,78.85
2023-02-11T00:25:57.074Z,78.81
2023-02-11T00:28:25.278Z,79.90
2023-02-11T00:30:57.881Z,79.40
2023-02-11T00:33:26.655Z,78.71
2023-02-11T00:35:57.331Z,79.40
2023-02-11T00:38:25.818Z,78.70
2023-02-11T00:40:54.946Z,78.62
2023-02-11T00:43:24.663Z,79.42
2023-02-11T00:45:53.411Z,79.49
2023-02-11T00:48:22.857Z,79.66
2023-02-11T00:50:51.308Z,79.23
2023-02-11T00:53:25.125Z,79.60
2023-02-11T00:55:54.947Z,79.46
2023-02-11T00:58:26.335Z,78.85
2023-02-11T01:00:58.617Z,78.68
2023-02-11T01:03:30.082Z,78.39
2023-02-11T01:05:59.608Z,78.81
2023-02-11T01:08:28.886Z,78.49
2023-02-11T01:11:00.651Z,77.88
2023-02-11T01:13:30.876Z,78.23
2023-02-11T01:15:59.513Z,78.10
2023-02-11T01:18:29.171Z,78.17
2023-02-11T01:20:59.067Z,78.56
2023-02-11T01:23:29.988Z,78.04
2023-02-11T01:26:00.908Z,77.40
2023-02-11T01:28:32.060Z,77.98
2023-02-11T01:31:01.440Z,77.85
2023-02-11T01:33:31.441Z,77.62
2023-02-11T01:36:05.958Z,76.93
2023-02-11T01:38:36.000Z,77.42
2023-02-11T01:41:08.369Z,77.11
2023-02-11T01:43:39.147Z,77.80
2023-02-11T01:46:34.129Z,78.06
2023-02-11T01:49:07.163Z,77.88
2023-02-11T01:51:40.713Z,78.25
2023-02-11T01:54:30.858Z,78.96
2023-02-11T01:57:21.569Z,79.49
2023-02-11T01:59:57.405Z,80.23
2023-02-11T02:02:33.663Z,80.27
2023-02-11T02:05:11.316Z,79.99
2023-02-11T02:07:47.406Z,80.86
2023-02-11T02:10:22.154Z,80.59
2023-02-11T02:12:53.155Z,80.38
2023-02-11T02:15:27.451Z,80.55
2023-02-11T02:18:11.819Z,80.75
2023-02-11T02:21:08.490Z,80.57
2023-02-11T02:23:58.946Z,80.98
2023-02-11T02:27:07.083Z,80.41
2023-02-11T02:30:01.755Z,80.46
2023-02-11T02:32:57.939Z,80.44
2023-02-11T02:35:36.021Z,80.52
2023-02-11T02:38:12.230Z,80.60
2023-02-11T02:40:47.955Z,80.43
2023-02-11T02:43:17.905Z,79.76
2023-02-11T02:45:47.416Z,80.51
2023-02-11T02:48:33.646Z,79.79
2023-02-11T02:51:12.279Z,80.57
2023-02-11T02:53:54.290Z,80.64
2023-02-11T02:56:33.503Z,79.85
2023-02-11T02:59:20.415Z,80.58
2023-02-11T03:01:59.435Z,80.72
2023-02-11T03:04:35.288Z,80.06
2023-02-11T03:07:13.672Z,80.65
2023-02-11T03:09:46.674Z,80.03
2023-02-11T03:12:16.820Z,80.14
2023-02-11T03:14:46.842Z,80.95
2023-02-11T03:17:17.995Z,80.20
2023-02-11T03:19:52.225Z,80.16
2023-02-11T03:22:26.924Z,80.26
2023-02-11T03:24:58.516Z,80.15
2023-02-11T03:27:31.966Z,80.85
2023-02-11T03:30:07.212Z,80.44
2023-02-11T03:32:43.981Z,81.13
2023-02-11T03:35:21.583Z,81.29
2023-02-11T03:37:56.284Z,81.35
2023-02-11T03:40:29.727Z,80.93
2023-02-11T03:43:01.159Z,81.29
2023-02-11T03:45:31.655Z,80.99
2023-02-11T03:48:03.870Z,80.60
2023-02-11T03:50:37.141Z,81.25
2023-02-11T03:53:06.702Z,81.15
2023-02-11T03:55:38.865Z,80.76
2023-02-11T03:58:08.670Z,80.62
2023-02-11T04:00:41.169Z,80.88
2023-02-11T04:03:19.337Z,80.85
2023-02-11T04:05:54.279Z,81.31
2023-02-11T04:08:22.226Z,80.36
2023-02-11T04:10:50.714Z,80.72
2023-02-11T04:13:18.936Z,79.78
2023-02-11T04:15:49.109Z,80.05
2023-02-11T04:18:18.282Z,80.20
2023-02-11T04:20:50.371Z,79.92
2023-02-11T04:23:21.493Z,80.03
2023-02-11T04:25:50.799Z,79.45
2023-02-11T04:28:19.811Z,78.68
2023-02-11T04:30:52.197Z,79.01
2023-02-11T04:33:20.525Z,78.54
2023-02-11T04:35:52.312Z,79.56
2023-02-11T04:38:21.123Z,79.04
2023-02-11T04:40:50.033Z,79.03
2023-02-11T04:43:17.940Z,79.05
2023-02-11T04:45:49.340Z,79.39
2023-02-11T04:48:17.745Z,79.21
2023-02-11T04:50:46.065Z,79.43
2023-02-11T04:53:17.829Z,78.64
2023-02-11T04:55:46.171Z,79.57
2023-02-11T04:58:14.259Z,79.69
2023-02-11T05:00:44.144Z,79.84
2023-02-11T05:03:14.039Z,79.23
2023-02-11T05:05:43.684Z,80.13
2023-02-11T05:08:15.798Z,79.93
2023-02-11T05:10:50.990Z,78.97
2023-02-11T05:13:19.700Z,79.76
2023-02-11T05:15:50.650Z,80.00
2023-02-11T05:18:19.137Z,79.26
2023-02-11T05:20:48.892Z,79.42
2023-02-11T05:23:18.067Z,79.33
2023-02-11T05:25:49.884Z,79.35
2023-02-11T05:28:19.717Z,78.66
2023-02-11T05:30:47.900Z,78.92
2023-02-11T05:33:17.187Z,78.69
2023-02-11T05:35:47.437Z,79.43
2023-02-11T05:38:18.416Z,79.02
2023-02-11T05:40:48.313Z,79.03
2023-02-11T05:43:18.147Z,79.16
2023-02-11T05:45:46.837Z,79.50
2023-02-11T05:48:15.605Z,79.11
2023-02-11T05:50:45.249Z,78.21
2023-02-11T05:53:15.782Z,78.68
2023-02-11T05:55:51.215Z,78.42
2023-02-11T05:58:25.575Z,78.54
2023-02-11T06:00:53.866Z,78.48
2023-02-11T06:03:24.395Z,79.41
2023-02-11T06:05:53.151Z,78.81
2023-02-11T06:08:21.477Z,78.64
2023-02-11T06:10:50.670Z,78.37
2023-02-11T06:13:25.862Z,78.13
2023-02-11T06:15:58.479Z,77.88
2023-02-11T06:18:27.488Z,78.13
2023-02-11T06:20:56.033Z,78.66
2023-02-11T06:23:29.124Z,78.50
2023-02-11T06:26:04.520Z,78.08
2023-02-11T06:28:36.550Z,78.89
2023-02-11T06:31:08.183Z,79.25
2023-02-11T06:33:37.087Z,79.57
2023-02-11T06:36:14.246Z,79.68
2023-02-11T06:38:44.774Z,79.16
2023-02-11T06:41:14.110Z,78.99
2023-02-11T06:43:46.058Z,79.81
2023-02-11T06:46:32.833Z,79.67
2023-02-11T06:49:01.852Z,79.35
2023-02-11T06:51:32.100Z,79.90
2023-02-11T06:54:01.555Z,79.96
2023-02-11T06:56:32.664Z,79.78
2023-02-11T06:59:03.692Z,79.11
2023-02-11T07:01:34.732Z,79.39
2023-02-11T07:04:03.671Z,79.65
2023-02-11T07:06:35.262Z,79.63
2023-02-11T07:09:05.153Z,78.91
2023-02-11T07:11:35.086Z,78.42
2023-02-11T07:14:17.564Z,78.51
2023-02-11T07:16:48.845Z,78.18
2023-02-11T07:19:20.114Z,77.68
2023-02-11T07:21:49.673Z,77.54
2023-02-11T07:24:20.960Z,78.13
2023-02-11T07:26:49.904Z,78.09
2023-02-11T07:29:25.944Z,78.31
2023-02-11T07:31:56.999Z,77.72
2023-02-11T07:34:27.235Z,78.24
2023-02-11T07:36:59.333Z,78.38
2023-02-11T07:39:29.456Z,78.20
2023-02-11T07:42:01.508Z,77.91
2023-02-11T07:44:33.552Z,78.07
2023-02-11T07:47:03.086Z,77.54
2023-02-11T07:49:45.972Z,77.49
2023-02-11T07:52:19.214Z,76.70
2023-02-11T07:54:47.471Z,76.90
2023-02-11T07:57:17.034Z,76.44
2023-02-11T07:59:52.446Z,76.81
2023-02-11T08:02:30.693Z,76.78
2023-02-11T08:04:59.311Z,75.40
2023-02-11T08:07:29.699Z,75.94
2023-02-11T08:10:17.783Z,75.97
2023-02-11T08:12:47.873Z,75.69
2023-02-11T08:15:21.456Z,75.58
2023-02-11T08:17:53.257Z,75.54
2023-02-11T08:20:21.962Z,75.37
2023-02-11T08:22:51.323Z,76.20
2023-02-11T08:28:10.495Z,75.17
2023-02-11T08:30:57.238Z,75.33
2023-02-11T08:33:27.599Z,74.87
2023-02-11T08:35:56.164Z,75.35
2023-02-11T08:38:27.586Z,73.84
2023-02-11T08:40:55.798Z,73.55
2023-02-11T08:43:24.320Z,74.02
2023-02-11T08:45:57.062Z,72.03
2023-02-11T08:48:25.098Z,71.42
2023-02-11T08:50:56.939Z,71.61
2023-02-11T08:53:29.170Z,70.86
2023-02-11T08:55:58.365Z,72.19
2023-02-11T08:58:26.546Z,73.05
2023-02-11T09:01:02.052Z,73.14
2023-02-11T09:03:32.748Z,72.42
2023-02-11T09:06:09.316Z,72.94
2023-02-11T09:08:46.323Z,72.27
2023-02-11T09:11:19.689Z,71.85
2023-02-11T09:14:02.866Z,72.04
2023-02-11T09:16:49.359Z,72.89
2023-02-11T09:19:18.628Z,72.40
2023-02-11T09:21:48.809Z,72.63
2023-02-11T09:24:20.521Z,70.76
2023-02-11T09:26:49.873Z,71.57
2023-02-11T09:29:21.891Z,72.45
2023-02-11T09:31:53.821Z,70.21
2023-02-11T09:34:22.275Z,72.04
2023-02-11T09:36:52.292Z,71.64
2023-02-11T09:39:22.648Z,71.08
2023-02-11T09:42:14.873Z,70.05
2023-02-11T09:44:49.568Z,69.28
2023-02-11T09:47:34.060Z,70.05
2023-02-11T09:50:09.155Z,70.43
2023-02-11T09:52:48.517Z,71.07
2023-02-11T09:55:28.425Z,70.18
2023-02-11T09:57:58.403Z,71.08
2023-02-11T10:00:38.816Z,71.04
2023-02-11T10:03:42.764Z,70.98
2023-02-11T10:06:41.544Z,69.17
2023-02-11T10:09:39.823Z,71.14
2023-02-11T10:12:50.821Z,69.54
2023-02-11T10:15:38.833Z,68.62
2023-02-11T10:18:33.885Z,68.11
2023-02-11T10:21:26.015Z,68.80
2023-02-11T10:24:04.806Z,69.06
2023-02-11T10:32:46.192Z,68.58
2023-02-11T10:38:16.561Z,69.13
2023-02-11T10:40:51.730Z,70.02
2023-02-11T10:43:27.836Z,70.45
2023-02-11T10:46:04.094Z,69.47
2023-02-11T10:49:00.028Z,66.90
2023-02-11T10:51:47.503Z,68.31
2023-02-11T10:54:23.648Z,67.71
2023-02-11T10:59:48.305Z,67.27
2023-02-11T11:02:34.726Z,69.02
2023-02-11T11:05:05.728Z,69.24
2023-02-11T11:07:36.576Z,67.70
2023-02-11T11:10:09.709Z,69.15
2023-02-11T11:12:50.839Z,71.11
2023-02-11T11:15:26.636Z,69.86
2023-02-11T11:18:21.326Z,71.01
2023-02-11T11:20:59.931Z,69.93
2023-02-11T11:23:30.776Z,70.45
2023-02-11T11:26:23.376Z,70.90
2023-02-11T11:28:57.882Z,70.41
2023-02-11T11:31:47.393Z,70.46
2023-02-11T11:34:25.957Z,68.92
2023-02-11T11:36:56.735Z,69.36
2023-02-11T11:39:28.577Z,69.11
2023-02-11T11:42:01.328Z,69.96
2023-02-11T11:44:36.832Z,69.83
2023-02-11T11:47:42.783Z,70.06
2023-02-11T11:50:24.005Z,69.35
2023-02-11T11:53:13.365Z,69.74
2023-02-11T11:55:53.694Z,70.73
2023-02-11T11:58:24.344Z,70.79
2023-02-11T12:01:08.231Z,69.94
2023-02-11T12:04:05.773Z,70.87
2023-02-11T12:06:42.637Z,70.43
2023-02-11T12:09:28.216Z,70.58
2023-02-11T12:12:19.209Z,70.09
2023-02-11T12:15:02.842Z,69.66
2023-02-11T12:17:54.872Z,68.23
2023-02-11T12:20:35.268Z,69.43
2023-02-11T12:23:45.082Z,70.18
2023-02-11T12:26:21.725Z,69.91
2023-02-11T12:29:34.124Z,70.41
2023-02-11T12:32:36.885Z,69.64
2023-02-11T12:35:45.132Z,68.66
2023-02-11T12:38:34.638Z,68.75
2023-02-11T12:41:45.748Z,68.15
2023-02-11T12:44:32.362Z,69.38
2023-02-11T12:47:14.090Z,70.47
2023-02-11T12:50:17.967Z,71.25
2023-02-11T12:53:16.025Z,70.91
2023-02-11T12:55:51.724Z,70.57
2023-02-11T12:58:42.814Z,69.54
2023-02-11T13:01:35.680Z,69.73
2023-02-11T13:04:12.861Z,70.10
2023-02-11T13:06:50.362Z,70.13
2023-02-11T13:09:27.657Z,69.77
2023-02-11T13:12:21.017Z,70.73
2023-02-11T13:14:53.528Z,70.49
2023-02-11T13:17:33.446Z,70.40
2023-02-11T13:20:18.028Z,69.66
2023-02-11T13:22:57.492Z,69.72
2023-02-11T13:25:33.981Z,69.20
2023-02-11T13:28:29.983Z,70.40
2023-02-11T13:31:04.387Z,69.89
2023-02-11T13:33:35.994Z,69.52
2023-02-11T13:36:43.792Z,70.21
2023-02-11T13:39:29.821Z,70.14
2023-02-11T13:42:08.478Z,69.80
2023-02-11T13:50:27.283Z,70.63
2023-02-11T13:53:16.178Z,70.04
2023-02-11T13:55:50.351Z,68.90
2023-02-11T13:58:32.872Z,68.76
2023-02-11T14:01:09.909Z,70.60
2023-02-11T14:04:07.170Z,71.34
2023-02-11T14:07:05.468Z,70.81
2023-02-11T14:09:39.461Z,72.75
2023-02-11T14:12:41.650Z,72.01
2023-02-11T14:15:25.761Z,72.15
2023-02-11T14:17:54.676Z,72.50
2023-02-11T14:20:51.689Z,70.93
2023-02-11T14:23:30.017Z,72.29
2023-02-11T14:26:21.430Z,71.77
2023-02-11T14:29:02.857Z,71.48
2023-02-11T14:31:41.022Z,71.60
2023-02-11T14:34:40.374Z,72.00
2023-02-11T14:37:29.129Z,70.59
2023-02-11T14:40:12.073Z,71.87
2023-02-11T14:42:44.025Z,71.16
2023-02-11T14:45:21.406Z,71.79
2023-02-11T14:47:54.936Z,71.25
2023-02-11T14:50:28.288Z,71.81
2023-02-11T14:52:59.283Z,72.18
2023-02-11T14:55:33.961Z,72.02
2023-02-11T14:58:15.105Z,72.23
2023-02-11T15:01:02.070Z,72.75
2023-02-11T15:03:36.985Z,72.06
2023-02-11T15:06:23.773Z,73.11
2023-02-11T15:09:03.328Z,71.23
2023-02-11T15:11:42.742Z,71.89
2023-02-11T15:14:26.215Z,72.76
2023-02-11T15:16:58.370Z,72.59
2023-02-11T15:19:34.398Z,73.30
2023-02-11T15:22:05.752Z,73.25
2023-02-11T15:24:41.738Z,73.68
2023-02-11T15:27:15.035Z,73.32
2023-02-11T15:29:46.590Z,73.67
2023-02-11T15:32:19.112Z,73.47
2023-02-11T15:34:48.604Z,73.96
2023-02-11T15:37:23.153Z,74.09
2023-02-11T15:40:15.141Z,74.78
2023-02-11T15:42:56.250Z,74.38
2023-02-11T15:45:30.408Z,74.99
2023-02-11T15:48:08.060Z,75.02
2023-02-11T15:50:41.758Z,75.25
2023-02-11T15:53:29.588Z,74.97
2023-02-11T15:56:07.405Z,75.45
2023-02-11T15:58:38.735Z,74.89
2023-02-11T16:01:11.758Z,74.90
2023-02-11T16:03:43.513Z,75.30
2023-02-11T16:06:23.675Z,75.45
2023-02-11T16:09:03.663Z,75.39
2023-02-11T16:11:35.671Z,75.63
2023-02-11T16:14:25.858Z,75.63
2023-02-11T16:16:58.932Z,75.50
2023-02-11T16:22:18.750Z,74.81
2023-02-11T16:24:57.839Z,75.76
2023-02-11T16:27:30.777Z,74.92
2023-02-11T16:30:03.348Z,75.25
2023-02-11T16:32:32.826Z,75.35
2023-02-11T16:35:06.264Z,75.73
2023-02-11T16:37:35.682Z,75.24
2023-02-11T16:40:05.354Z,76.13
2023-02-11T16:42:38.672Z,76.37
2023-02-11T16:45:09.029Z,75.85
2023-02-11T16:47:41.418Z,75.59
2023-02-11T16:50:17.632Z,75.71
2023-02-11T16:52:46.598Z,76.37
2023-02-11T16:55:18.126Z,75.90
2023-02-11T16:57:56.109Z,76.01
2023-02-11T17:00:26.173Z,76.14
2023-02-11T17:02:58.674Z,75.23
2023-02-11T17:05:28.749Z,75.77
2023-02-11T17:07:57.252Z,75.62
2023-02-11T17:10:30.894Z,75.79
2023-02-11T17:13:02.646Z,76.24
2023-02-11T17:15:34.070Z,76.41
2023-02-11T17:18:02.636Z,76.43
2023-02-11T17:20:32.912Z,76.42
2023-02-11T17:23:02.289Z,76.28
2023-02-11T17:25:32.648Z,75.68
2023-02-11T17:28:03.218Z,76.22
2023-02-11T17:30:34.922Z,76.14
2023-02-11T17:33:05.711Z,75.61
2023-02-11T17:35:35.310Z,75.30
2023-02-11T17:38:06.387Z,75.60
2023-02-11T17:40:35.419Z,75.72
2023-02-11T17:43:07.188Z,75.47
2023-02-11T17:45:43.023Z,75.94
2023-02-11T17:48:19.646Z,75.53
2023-02-11T17:50:52.829Z,74.93
2023-02-11T17:53:21.448Z,74.94
2023-02-11T17:55:58.261Z,75.05
2023-02-11T17:58:28.658Z,75.21
2023-02-11T18:01:00.562Z,75.60
2023-02-11T18:03:28.887Z,75.35
2023-02-11T18:06:20.149Z,75.33
2023-02-11T18:08:50.889Z,74.52
2023-02-11T18:11:25.714Z,74.62
2023-02-11T18:13:55.707Z,75.47
2023-02-11T18:16:28.962Z,75.43
2023-02-11T18:18:58.626Z,75.61
2023-02-11T18:21:31.022Z,75.88
2023-02-11T18:24:05.989Z,75.28
2023-02-11T18:26:37.740Z,75.74
2023-02-11T18:29:10.743Z,75.47
2023-02-11T18:31:40.691Z,75.34
2023-02-11T18:34:10.774Z,75.42
2023-02-11T18:36:43.282Z,75.49
2023-02-11T18:39:14.848Z,76.36
2023-02-11T18:41:44.887Z,75.50
2023-02-11T18:44:25.795Z,76.71
2023-02-11T18:46:56.979Z,76.36
2023-02-11T18:49:25.619Z,76.28
2023-02-11T18:51:55.644Z,76.43
2023-02-11T18:54:24.661Z,76.04
2023-02-11T18:56:54.608Z,76.17
2023-02-11T18:59:25.251Z,75.97
2023-02-11T19:01:54.015Z,75.86
2023-02-11T19:04:24.190Z,75.43
2023-02-11T19:06:55.253Z,76.59
2023-02-11T19:09:23.503Z,76.42
2023-02-11T19:11:54.447Z,76.79
2023-02-11T19:14:24.919Z,75.90
2023-02-11T19:16:59.238Z,75.76
2023-02-11T19:19:30.067Z,76.56
2023-02-11T19:22:02.573Z,76.00
2023-02-11T19:24:38.647Z,76.08
2023-02-11T19:27:11.356Z,76.22
2023-02-11T19:29:40.408Z,76.21
2023-02-11T19:32:09.789Z,76.11
2023-02-11T19:34:41.628Z,76.17
2023-02-11T19:37:14.256Z,77.12
2023-02-11T19:39:43.043Z,76.32
2023-02-11T19:42:12.636Z,76.52
2023-02-11T19:44:41.529Z,75.66
2023-02-11T19:47:15.202Z,76.03
2023-02-11T19:49:46.228Z,76.48
2023-02-11T19:52:16.284Z,76.75
2023-02-11T19:54:44.720Z,75.60
2023-02-11T19:57:13.552Z,77.01
2023-02-11T19:59:41.871Z,76.11
2023-02-11T20:02:14.173Z,75.95
2023-02-11T20:04:46.711Z,76.54
2023-02-11T20:07:18.462Z,75.79
2023-02-11T20:09:47.744Z,76.70
2023-02-11T20:12:16.510Z,76.21
2023-02-11T20:14:46.308Z,76.12
2023-02-11T20:17:16.165Z,76.65
2023-02-11T20:19:45.528Z,76.12
2023-02-11T20:22:19.661Z,76.27
2023-02-11T20:24:49.198Z,76.26
2023-02-11T20:27:19.961Z,76.63
2023-02-11T20:29:49.339Z,76.60
2023-02-11T20:32:19.194Z,76.96
2023-02-11T20:34:47.879Z,77.02
2023-02-11T20:37:19.763Z,77.09
2023-02-11T20:39:51.288Z,76.75
2023-02-11T20:42:20.430Z,77.31
2023-02-11T20:44:48.674Z,77.45
2023-02-11T20:47:17.875Z,77.60
2023-02-11T20:49:47.058Z,77.94
2023-02-11T20:52:18.450Z,77.17
2023-02-11T20:54:47.868Z,77.25
2023-02-11T20:57:31.156Z,77.90
2023-02-11T21:00:01.135Z,78.16
2023-02-11T21:02:30.506Z,78.24
2023-02-11T21:05:00.688Z,78.72
2023-02-11T21:07:33.654Z,77.40
2023-02-11T21:10:03.444Z,78.13
2023-02-11T21:12:31.257Z,77.66
2023-02-11T21:15:00.453Z,77.00
2023-02-11T21:17:29.047Z,77.68
2023-02-11T21:20:04.704Z,77.37
2023-02-11T21:22:36.275Z,77.05
2023-02-11T21:25:06.285Z,77.24
2023-02-11T21:27:34.845Z,77.61
2023-02-11T21:30:05.250Z,78.05
2023-02-11T21:32:33.920Z,77.85
2023-02-11T21:35:04.189Z,78.02
2023-02-11T21:37:32.280Z,77.72
2023-02-11T21:40:03.542Z,78.11
2023-02-11T21:42:32.634Z,77.95
2023-02-11T21:45:02.747Z,78.04
2023-02-11T21:47:30.831Z,77.87
2023-02-11T21:49:59.073Z,77.82
2023-02-11T21:52:27.421Z,77.68
2023-02-11T21:54:56.061Z,77.67
2023-02-11T21:57:27.288Z,77.40
2023-02-11T21:59:55.336Z,77.56
2023-02-11T22:02:23.677Z,76.85
2023-02-11T22:04:53.831Z,77.34
2023-02-11T22:07:23.169Z,77.42
2023-02-11T22:09:55.739Z,77.02
2023-02-11T22:12:25.398Z,77.67
2023-02-11T22:14:54.530Z,77.56
2023-02-11T22:17:23.151Z,77.78
2023-02-11T22:19:52.169Z,77.63
2023-02-11T22:22:24.005Z,77.96
2023-02-11T22:25:00.543Z,77.70
2023-02-11T22:27:36.630Z,77.40
2023-02-11T22:30:07.825Z,77.36
2023-02-11T22:32:38.834Z,77.57
2023-02-11T22:35:08.152Z,77.59
2023-02-11T22:37:37.818Z,77.20
2023-02-11T22:40:09.497Z,76.73
2023-02-11T22:42:39.373Z,76.87
2023-02-11T22:45:14.817Z,77.17
2023-02-11T22:47:48.452Z,77.33
2023-02-11T22:50:17.273Z,77.78
2023-02-11T22:52:45.286Z,77.58
2023-02-11T22:55:13.310Z,78.01
2023-02-11T22:57:43.035Z,77.30
2023-02-11T23:00:12.559Z,77.40
2023-02-11T23:02:42.319Z,77.25
2023-02-11T23:05:13.542Z,77.27
2023-02-11T23:07:42.237Z,77.71
2023-02-11T23:10:13.544Z,77.83
2023-02-11T23:12:44.601Z,77.86
2023-02-11T23:15:14.608Z,78.12
2023-02-11T23:17:42.946Z,77.45
2023-02-11T23:20:11.982Z,77.95
2023-02-11T23:22:39.852Z,78.03
2023-02-11T23:25:09.976Z,78.12
2023-02-11T23:27:39.871Z,78.34
2023-02-11T23:30:14.011Z,77.53
2023-02-11T23:32:43.670Z,77.82
2023-02-11T23:35:14.046Z,77.90
2023-02-11T23:37:42.828Z,78.22
2023-02-11T23:40:12.549Z,78.48
2023-02-11T23:42:42.218Z,77.81
2023-02-11T23:45:11.932Z,78.44
2023-02-11T23:47:42.664Z,78.03
2023-02-11T23:50:14.907Z,78.17
2023-02-11T23:52:44.253Z,78.04
2023-02-11T23:55:13.164Z,78.61
2023-02-11T23:57:42.015Z,78.60
